sensor_id;sensor_type;location;lat;lon;timestamp;P1;durP1;ratioP1;P2;durP2;ratioP2
76423;SDS011;65257;52.104;4.268;2023-05-07T00:00:27;43.60;;;24.40;;
76423;SDS011;65257;52.104;4.268;2023-05-07T00:02:53;39.70;;;23.60;;
76423;SDS011;65257;52.104;4.268;2023-05-07T00:05:20;37.08;;;22.20;;
76423;SDS011;65257;52.104;4.268;2023-05-07T00:07:46;47.17;;;23.17;;
76423;SDS011;65257;52.104;4.268;2023-05-07T00:10:12;41.42;;;24.17;;
76423;SDS011;65257;52.104;4.268;2023-05-07T00:12:37;36.88;;;22.75;;
76423;SDS011;65257;52.104;4.268;2023-05-07T00:15:03;42.10;;;24.63;;
76423;SDS011;65257;52.104;4.268;2023-05-07T00:17:29;41.22;;;23.35;;
76423;SDS011;65257;52.104;4.268;2023-05-07T00:19:55;42.88;;;24.38;;
76423;SDS011;65257;52.104;4.268;2023-05-07T00:22:20;43.30;;;25.10;;
76423;SDS011;65257;52.104;4.268;2023-05-07T00:24:46;42.47;;;23.70;;
76423;SDS011;65257;52.104;4.268;2023-05-07T00:27:12;45.78;;;24.33;;
76423;SDS011;65257;52.104;4.268;2023-05-07T00:29:38;43.78;;;24.35;;
76423;SDS011;65257;52.104;4.268;2023-05-07T00:32:04;43.25;;;24.13;;
76423;SDS011;65257;52.104;4.268;2023-05-07T00:34:30;47.15;;;26.63;;
76423;SDS011;65257;52.104;4.268;2023-05-07T00:37:01;45.05;;;25.23;;
76423;SDS011;65257;52.104;4.268;2023-05-07T00:39:27;45.22;;;24.33;;
76423;SDS011;65257;52.104;4.268;2023-05-07T00:41:56;46.40;;;25.88;;
76423;SDS011;65257;52.104;4.268;2023-05-07T00:44:22;47.72;;;25.90;;
76423;SDS011;65257;52.104;4.268;2023-05-07T00:46:48;46.38;;;24.25;;
76423;SDS011;65257;52.104;4.268;2023-05-07T00:49:14;48.53;;;25.50;;
76423;SDS011;65257;52.104;4.268;2023-05-07T00:51:41;49.92;;;24.92;;
76423;SDS011;65257;52.104;4.268;2023-05-07T00:54:07;43.97;;;25.15;;
76423;SDS011;65257;52.104;4.268;2023-05-07T00:56:32;43.30;;;22.75;;
76423;SDS011;65257;52.104;4.268;2023-05-07T00:59:00;53.47;;;27.95;;
76423;SDS011;65257;52.104;4.268;2023-05-07T01:01:30;46.90;;;25.40;;
76423;SDS011;65257;52.104;4.268;2023-05-07T01:04:02;45.63;;;23.73;;
76423;SDS011;65257;52.104;4.268;2023-05-07T01:06:30;46.80;;;25.83;;
76423;SDS011;65257;52.104;4.268;2023-05-07T01:08:57;45.58;;;23.83;;
76423;SDS011;65257;52.104;4.268;2023-05-07T01:11:23;48.83;;;27.05;;
76423;SDS011;65257;52.104;4.268;2023-05-07T01:13:50;40.42;;;21.70;;
76423;SDS011;65257;52.104;4.268;2023-05-07T01:16:16;43.15;;;22.65;;
76423;SDS011;65257;52.104;4.268;2023-05-07T01:18:45;43.58;;;24.15;;
76423;SDS011;65257;52.104;4.268;2023-05-07T01:23:40;44.95;;;25.15;;
76423;SDS011;65257;52.104;4.268;2023-05-07T01:26:06;40.10;;;21.75;;
76423;SDS011;65257;52.104;4.268;2023-05-07T01:28:43;41.53;;;22.73;;
76423;SDS011;65257;52.104;4.268;2023-05-07T01:31:09;41.15;;;22.70;;
76423;SDS011;65257;52.104;4.268;2023-05-07T01:33:40;45.00;;;23.83;;
76423;SDS011;65257;52.104;4.268;2023-05-07T01:36:10;43.50;;;24.05;;
76423;SDS011;65257;52.104;4.268;2023-05-07T01:38:41;42.42;;;23.55;;
76423;SDS011;65257;52.104;4.268;2023-05-07T01:41:07;45.50;;;24.13;;
76423;SDS011;65257;52.104;4.268;2023-05-07T01:43:33;43.25;;;23.13;;
76423;SDS011;65257;52.104;4.268;2023-05-07T01:45:59;41.42;;;23.73;;
76423;SDS011;65257;52.104;4.268;2023-05-07T01:48:34;43.30;;;22.60;;
76423;SDS011;65257;52.104;4.268;2023-05-07T01:51:03;46.75;;;24.13;;
76423;SDS011;65257;52.104;4.268;2023-05-07T01:53:35;48.88;;;24.92;;
76423;SDS011;65257;52.104;4.268;2023-05-07T01:56:02;49.47;;;24.70;;
76423;SDS011;65257;52.104;4.268;2023-05-07T01:58:27;46.78;;;24.30;;
76423;SDS011;65257;52.104;4.268;2023-05-07T02:00:56;45.25;;;25.48;;
76423;SDS011;65257;52.104;4.268;2023-05-07T02:03:21;42.38;;;23.33;;
76423;SDS011;65257;52.104;4.268;2023-05-07T02:05:47;46.13;;;24.55;;
76423;SDS011;65257;52.104;4.268;2023-05-07T02:08:13;40.75;;;23.58;;
76423;SDS011;65257;52.104;4.268;2023-05-07T02:10:39;45.97;;;23.27;;
76423;SDS011;65257;52.104;4.268;2023-05-07T02:13:07;44.38;;;23.60;;
76423;SDS011;65257;52.104;4.268;2023-05-07T02:15:32;44.58;;;23.05;;
76423;SDS011;65257;52.104;4.268;2023-05-07T02:18:00;40.03;;;22.70;;
76423;SDS011;65257;52.104;4.268;2023-05-07T02:20:28;36.20;;;21.27;;
76423;SDS011;65257;52.104;4.268;2023-05-07T02:22:53;40.45;;;22.23;;
76423;SDS011;65257;52.104;4.268;2023-05-07T02:25:22;36.15;;;20.52;;
76423;SDS011;65257;52.104;4.268;2023-05-07T02:27:51;39.15;;;20.73;;
76423;SDS011;65257;52.104;4.268;2023-05-07T02:30:19;37.83;;;21.00;;
76423;SDS011;65257;52.104;4.268;2023-05-07T02:32:46;36.70;;;18.83;;
76423;SDS011;65257;52.104;4.268;2023-05-07T02:35:13;38.15;;;20.20;;
76423;SDS011;65257;52.104;4.268;2023-05-07T02:37:38;37.08;;;17.95;;
76423;SDS011;65257;52.104;4.268;2023-05-07T02:40:10;37.55;;;20.63;;
76423;SDS011;65257;52.104;4.268;2023-05-07T02:42:36;36.30;;;19.50;;
76423;SDS011;65257;52.104;4.268;2023-05-07T02:45:20;33.03;;;19.17;;
76423;SDS011;65257;52.104;4.268;2023-05-07T02:47:48;32.80;;;17.33;;
76423;SDS011;65257;52.104;4.268;2023-05-07T02:50:14;34.33;;;18.13;;
76423;SDS011;65257;52.104;4.268;2023-05-07T02:52:40;34.38;;;19.45;;
76423;SDS011;65257;52.104;4.268;2023-05-07T02:55:05;37.58;;;19.00;;
76423;SDS011;65257;52.104;4.268;2023-05-07T02:57:31;32.47;;;17.80;;
76423;SDS011;65257;52.104;4.268;2023-05-07T02:59:57;33.70;;;18.90;;
76423;SDS011;65257;52.104;4.268;2023-05-07T03:02:26;35.17;;;19.55;;
76423;SDS011;65257;52.104;4.268;2023-05-07T03:04:51;34.40;;;18.98;;
76423;SDS011;65257;52.104;4.268;2023-05-07T03:07:17;36.70;;;19.75;;
76423;SDS011;65257;52.104;4.268;2023-05-07T03:09:42;32.15;;;20.48;;
76423;SDS011;65257;52.104;4.268;2023-05-07T03:12:08;31.17;;;18.05;;
76423;SDS011;65257;52.104;4.268;2023-05-07T03:14:36;30.52;;;19.05;;
76423;SDS011;65257;52.104;4.268;2023-05-07T03:17:02;31.35;;;19.27;;
76423;SDS011;65257;52.104;4.268;2023-05-07T03:19:28;31.45;;;17.40;;
76423;SDS011;65257;52.104;4.268;2023-05-07T03:21:53;32.50;;;19.20;;
76423;SDS011;65257;52.104;4.268;2023-05-07T03:24:18;31.38;;;18.70;;
76423;SDS011;65257;52.104;4.268;2023-05-07T03:26:44;30.58;;;19.90;;
76423;SDS011;65257;52.104;4.268;2023-05-07T03:29:09;31.73;;;17.77;;
76423;SDS011;65257;52.104;4.268;2023-05-07T03:31:35;29.63;;;18.17;;
76423;SDS011;65257;52.104;4.268;2023-05-07T03:34:06;30.98;;;18.85;;
76423;SDS011;65257;52.104;4.268;2023-05-07T03:36:33;33.97;;;18.90;;
76423;SDS011;65257;52.104;4.268;2023-05-07T03:38:59;31.13;;;18.35;;
76423;SDS011;65257;52.104;4.268;2023-05-07T03:41:24;30.90;;;17.92;;
76423;SDS011;65257;52.104;4.268;2023-05-07T03:43:50;30.80;;;17.42;;
76423;SDS011;65257;52.104;4.268;2023-05-07T03:46:16;28.38;;;17.38;;
76423;SDS011;65257;52.104;4.268;2023-05-07T03:48:41;29.67;;;18.83;;
76423;SDS011;65257;52.104;4.268;2023-05-07T03:51:07;29.25;;;17.73;;
76423;SDS011;65257;52.104;4.268;2023-05-07T03:53:32;28.05;;;17.92;;
76423;SDS011;65257;52.104;4.268;2023-05-07T03:55:59;30.35;;;18.02;;
76423;SDS011;65257;52.104;4.268;2023-05-07T03:58:25;28.63;;;17.35;;
76423;SDS011;65257;52.104;4.268;2023-05-07T04:00:50;29.45;;;18.60;;
76423;SDS011;65257;52.104;4.268;2023-05-07T04:03:16;29.40;;;17.67;;
76423;SDS011;65257;52.104;4.268;2023-05-07T04:05:42;28.80;;;18.02;;
76423;SDS011;65257;52.104;4.268;2023-05-07T04:08:07;30.20;;;18.95;;
76423;SDS011;65257;52.104;4.268;2023-05-07T04:10:33;32.03;;;20.50;;
76423;SDS011;65257;52.104;4.268;2023-05-07T04:12:58;29.30;;;18.17;;
76423;SDS011;65257;52.104;4.268;2023-05-07T04:15:24;29.75;;;17.83;;
76423;SDS011;65257;52.104;4.268;2023-05-07T04:17:55;29.90;;;18.50;;
76423;SDS011;65257;52.104;4.268;2023-05-07T04:20:21;30.77;;;17.88;;
76423;SDS011;65257;52.104;4.268;2023-05-07T04:23:09;31.52;;;16.40;;
76423;SDS011;65257;52.104;4.268;2023-05-07T04:25:35;26.30;;;17.38;;
76423;SDS011;65257;52.104;4.268;2023-05-07T04:28:00;25.50;;;16.80;;
76423;SDS011;65257;52.104;4.268;2023-05-07T04:30:26;27.25;;;15.70;;
76423;SDS011;65257;52.104;4.268;2023-05-07T04:32:55;25.63;;;15.82;;
76423;SDS011;65257;52.104;4.268;2023-05-07T04:35:21;24.90;;;16.30;;
76423;SDS011;65257;52.104;4.268;2023-05-07T04:37:46;22.77;;;15.80;;
76423;SDS011;65257;52.104;4.268;2023-05-07T04:40:12;22.88;;;15.43;;
76423;SDS011;65257;52.104;4.268;2023-05-07T04:42:38;24.63;;;15.45;;
76423;SDS011;65257;52.104;4.268;2023-05-07T04:45:03;26.02;;;16.33;;
76423;SDS011;65257;52.104;4.268;2023-05-07T04:47:39;22.33;;;14.75;;
76423;SDS011;65257;52.104;4.268;2023-05-07T04:50:06;22.08;;;15.40;;
76423;SDS011;65257;52.104;4.268;2023-05-07T04:52:34;24.77;;;15.30;;
76423;SDS011;65257;52.104;4.268;2023-05-07T04:55:03;21.70;;;13.07;;
76423;SDS011;65257;52.104;4.268;2023-05-07T04:57:33;25.25;;;14.65;;
76423;SDS011;65257;52.104;4.268;2023-05-07T05:00:07;22.60;;;13.32;;
76423;SDS011;65257;52.104;4.268;2023-05-07T05:02:39;22.77;;;14.82;;
76423;SDS011;65257;52.104;4.268;2023-05-07T05:05:09;23.20;;;14.95;;
76423;SDS011;65257;52.104;4.268;2023-05-07T05:07:35;21.77;;;14.43;;
76423;SDS011;65257;52.104;4.268;2023-05-07T05:10:05;19.70;;;13.60;;
76423;SDS011;65257;52.104;4.268;2023-05-07T05:12:31;22.70;;;13.73;;
76423;SDS011;65257;52.104;4.268;2023-05-07T05:14:56;20.02;;;14.50;;
76423;SDS011;65257;52.104;4.268;2023-05-07T05:17:37;21.60;;;13.93;;
76423;SDS011;65257;52.104;4.268;2023-05-07T05:20:02;20.42;;;13.25;;
76423;SDS011;65257;52.104;4.268;2023-05-07T05:22:28;19.25;;;14.00;;
76423;SDS011;65257;52.104;4.268;2023-05-07T05:24:56;21.65;;;16.27;;
76423;SDS011;65257;52.104;4.268;2023-05-07T05:27:21;18.83;;;13.88;;
76423;SDS011;65257;52.104;4.268;2023-05-07T05:29:47;21.35;;;14.95;;
76423;SDS011;65257;52.104;4.268;2023-05-07T05:32:16;20.25;;;14.00;;
76423;SDS011;65257;52.104;4.268;2023-05-07T05:34:41;20.77;;;14.52;;
76423;SDS011;65257;52.104;4.268;2023-05-07T05:37:12;22.02;;;14.07;;
76423;SDS011;65257;52.104;4.268;2023-05-07T05:39:38;20.67;;;14.00;;
76423;SDS011;65257;52.104;4.268;2023-05-07T05:42:04;20.63;;;13.85;;
76423;SDS011;65257;52.104;4.268;2023-05-07T05:44:30;20.30;;;14.20;;
76423;SDS011;65257;52.104;4.268;2023-05-07T05:46:55;19.60;;;13.68;;
76423;SDS011;65257;52.104;4.268;2023-05-07T05:49:22;19.20;;;14.02;;
76423;SDS011;65257;52.104;4.268;2023-05-07T05:51:48;19.48;;;14.18;;
76423;SDS011;65257;52.104;4.268;2023-05-07T05:54:14;20.58;;;14.63;;
76423;SDS011;65257;52.104;4.268;2023-05-07T05:56:40;23.23;;;14.00;;
76423;SDS011;65257;52.104;4.268;2023-05-07T05:59:08;19.50;;;14.50;;
76423;SDS011;65257;52.104;4.268;2023-05-07T06:01:37;20.00;;;13.48;;
76423;SDS011;65257;52.104;4.268;2023-05-07T06:04:02;21.80;;;13.23;;
76423;SDS011;65257;52.104;4.268;2023-05-07T06:06:29;21.02;;;13.65;;
76423;SDS011;65257;52.104;4.268;2023-05-07T06:08:54;20.75;;;13.82;;
76423;SDS011;65257;52.104;4.268;2023-05-07T06:11:20;17.70;;;12.40;;
76423;SDS011;65257;52.104;4.268;2023-05-07T06:13:46;20.40;;;13.30;;
76423;SDS011;65257;52.104;4.268;2023-05-07T06:16:14;20.05;;;14.55;;
76423;SDS011;65257;52.104;4.268;2023-05-07T06:18:40;20.85;;;13.77;;
76423;SDS011;65257;52.104;4.268;2023-05-07T06:21:13;20.13;;;14.05;;
76423;SDS011;65257;52.104;4.268;2023-05-07T06:23:40;19.83;;;13.90;;
76423;SDS011;65257;52.104;4.268;2023-05-07T06:26:09;19.17;;;12.30;;
76423;SDS011;65257;52.104;4.268;2023-05-07T06:31:19;17.85;;;12.57;;
76423;SDS011;65257;52.104;4.268;2023-05-07T06:33:48;18.50;;;11.18;;
76423;SDS011;65257;52.104;4.268;2023-05-07T06:36:15;16.13;;;10.60;;
76423;SDS011;65257;52.104;4.268;2023-05-07T06:38:49;13.93;;;10.68;;
76423;SDS011;65257;52.104;4.268;2023-05-07T06:41:14;14.77;;;10.23;;
76423;SDS011;65257;52.104;4.268;2023-05-07T06:43:40;15.43;;;10.60;;
76423;SDS011;65257;52.104;4.268;2023-05-07T06:46:06;14.52;;;10.80;;
76423;SDS011;65257;52.104;4.268;2023-05-07T06:48:31;14.75;;;10.75;;
76423;SDS011;65257;52.104;4.268;2023-05-07T06:50:57;11.95;;;9.82;;
76423;SDS011;65257;52.104;4.268;2023-05-07T06:53:23;13.07;;;9.43;;
76423;SDS011;65257;52.104;4.268;2023-05-07T06:55:52;13.60;;;10.05;;
76423;SDS011;65257;52.104;4.268;2023-05-07T06:58:17;15.15;;;9.82;;
76423;SDS011;65257;52.104;4.268;2023-05-07T07:00:44;11.68;;;9.75;;
76423;SDS011;65257;52.104;4.268;2023-05-07T07:03:11;13.45;;;10.20;;
76423;SDS011;65257;52.104;4.268;2023-05-07T07:05:42;11.65;;;9.20;;
76423;SDS011;65257;52.104;4.268;2023-05-07T07:08:08;11.68;;;8.77;;
76423;SDS011;65257;52.104;4.268;2023-05-07T07:10:34;12.88;;;9.13;;
76423;SDS011;65257;52.104;4.268;2023-05-07T07:13:00;12.27;;;8.88;;
76423;SDS011;65257;52.104;4.268;2023-05-07T07:15:26;12.10;;;9.35;;
76423;SDS011;65257;52.104;4.268;2023-05-07T07:17:52;11.45;;;9.15;;
76423;SDS011;65257;52.104;4.268;2023-05-07T07:20:17;11.15;;;8.07;;
76423;SDS011;65257;52.104;4.268;2023-05-07T07:22:43;11.45;;;8.95;;
76423;SDS011;65257;52.104;4.268;2023-05-07T07:25:09;11.57;;;9.52;;
76423;SDS011;65257;52.104;4.268;2023-05-07T07:27:39;15.77;;;8.90;;
76423;SDS011;65257;52.104;4.268;2023-05-07T07:30:06;11.43;;;8.95;;
76423;SDS011;65257;52.104;4.268;2023-05-07T07:32:33;12.25;;;8.63;;
76423;SDS011;65257;52.104;4.268;2023-05-07T07:34:59;10.88;;;8.80;;
76423;SDS011;65257;52.104;4.268;2023-05-07T07:37:24;12.32;;;7.72;;
76423;SDS011;65257;52.104;4.268;2023-05-07T07:39:51;10.18;;;7.88;;
76423;SDS011;65257;52.104;4.268;2023-05-07T07:42:16;10.20;;;8.40;;
76423;SDS011;65257;52.104;4.268;2023-05-07T07:44:42;10.15;;;7.78;;
76423;SDS011;65257;52.104;4.268;2023-05-07T07:47:10;12.02;;;8.35;;
76423;SDS011;65257;52.104;4.268;2023-05-07T07:49:36;11.73;;;8.18;;
76423;SDS011;65257;52.104;4.268;2023-05-07T07:52:08;10.35;;;6.47;;
76423;SDS011;65257;52.104;4.268;2023-05-07T07:54:36;10.88;;;6.95;;
76423;SDS011;65257;52.104;4.268;2023-05-07T07:57:02;11.90;;;6.88;;
76423;SDS011;65257;52.104;4.268;2023-05-07T07:59:30;10.55;;;6.10;;
76423;SDS011;65257;52.104;4.268;2023-05-07T08:01:56;11.85;;;7.78;;
76423;SDS011;65257;52.104;4.268;2023-05-07T08:04:28;9.95;;;7.22;;
76423;SDS011;65257;52.104;4.268;2023-05-07T08:06:53;11.57;;;7.55;;
76423;SDS011;65257;52.104;4.268;2023-05-07T08:09:25;12.57;;;5.88;;
76423;SDS011;65257;52.104;4.268;2023-05-07T08:11:50;8.68;;;6.47;;
76423;SDS011;65257;52.104;4.268;2023-05-07T08:14:16;9.95;;;6.43;;
76423;SDS011;65257;52.104;4.268;2023-05-07T08:16:41;8.98;;;6.47;;
76423;SDS011;65257;52.104;4.268;2023-05-07T08:19:07;11.63;;;5.85;;
76423;SDS011;65257;52.104;4.268;2023-05-07T08:21:32;11.30;;;6.85;;
76423;SDS011;65257;52.104;4.268;2023-05-07T08:23:58;9.25;;;6.40;;
76423;SDS011;65257;52.104;4.268;2023-05-07T08:26:29;12.52;;;7.07;;
76423;SDS011;65257;52.104;4.268;2023-05-07T08:28:58;10.50;;;6.65;;
76423;SDS011;65257;52.104;4.268;2023-05-07T08:31:23;8.98;;;6.60;;
76423;SDS011;65257;52.104;4.268;2023-05-07T08:33:49;13.75;;;7.35;;
76423;SDS011;65257;52.104;4.268;2023-05-07T08:36:15;10.27;;;6.43;;
76423;SDS011;65257;52.104;4.268;2023-05-07T08:38:40;11.57;;;6.68;;
76423;SDS011;65257;52.104;4.268;2023-05-07T08:41:09;10.93;;;7.07;;
76423;SDS011;65257;52.104;4.268;2023-05-07T08:43:35;11.40;;;6.72;;
76423;SDS011;65257;52.104;4.268;2023-05-07T08:46:06;15.35;;;7.88;;
76423;SDS011;65257;52.104;4.268;2023-05-07T08:48:49;9.35;;;5.88;;
76423;SDS011;65257;52.104;4.268;2023-05-07T08:51:16;8.68;;;6.20;;
76423;SDS011;65257;52.104;4.268;2023-05-07T08:53:43;13.82;;;7.22;;
76423;SDS011;65257;52.104;4.268;2023-05-07T08:56:11;12.02;;;6.25;;
76423;SDS011;65257;52.104;4.268;2023-05-07T08:58:37;13.68;;;5.30;;
76423;SDS011;65257;52.104;4.268;2023-05-07T09:01:09;9.32;;;4.90;;
76423;SDS011;65257;52.104;4.268;2023-05-07T09:03:42;12.10;;;5.53;;
76423;SDS011;65257;52.104;4.268;2023-05-07T09:06:10;13.88;;;5.63;;
76423;SDS011;65257;52.104;4.268;2023-05-07T09:08:36;10.05;;;4.80;;
76423;SDS011;65257;52.104;4.268;2023-05-07T09:11:02;8.90;;;4.85;;
76423;SDS011;65257;52.104;4.268;2023-05-07T09:13:43;13.50;;;5.43;;
76423;SDS011;65257;52.104;4.268;2023-05-07T09:16:17;10.55;;;4.82;;
76423;SDS011;65257;52.104;4.268;2023-05-07T09:18:45;9.00;;;5.00;;
76423;SDS011;65257;52.104;4.268;2023-05-07T09:21:16;11.20;;;5.32;;
76423;SDS011;65257;52.104;4.268;2023-05-07T09:23:45;9.65;;;4.78;;
76423;SDS011;65257;52.104;4.268;2023-05-07T09:26:12;9.48;;;5.20;;
76423;SDS011;65257;52.104;4.268;2023-05-07T09:28:42;8.32;;;4.05;;
76423;SDS011;65257;52.104;4.268;2023-05-07T09:31:11;10.07;;;5.07;;
76423;SDS011;65257;52.104;4.268;2023-05-07T09:33:37;8.77;;;4.97;;
76423;SDS011;65257;52.104;4.268;2023-05-07T09:36:09;11.38;;;5.10;;
76423;SDS011;65257;52.104;4.268;2023-05-07T09:38:37;11.52;;;5.65;;
76423;SDS011;65257;52.104;4.268;2023-05-07T09:43:36;11.80;;;5.25;;
76423;SDS011;65257;52.104;4.268;2023-05-07T09:46:12;13.98;;;6.80;;
76423;SDS011;65257;52.104;4.268;2023-05-07T09:48:43;13.75;;;7.55;;
76423;SDS011;65257;52.104;4.268;2023-05-07T09:51:21;13.70;;;8.20;;
76423;SDS011;65257;52.104;4.268;2023-05-07T09:53:57;13.10;;;7.65;;
76423;SDS011;65257;52.104;4.268;2023-05-07T09:56:29;13.88;;;6.90;;
76423;SDS011;65257;52.104;4.268;2023-05-07T09:58:55;13.82;;;6.22;;
76423;SDS011;65257;52.104;4.268;2023-05-07T10:01:22;11.38;;;7.38;;
76423;SDS011;65257;52.104;4.268;2023-05-07T10:03:56;20.63;;;8.02;;
76423;SDS011;65257;52.104;4.268;2023-05-07T10:06:24;11.18;;;8.15;;
76423;SDS011;65257;52.104;4.268;2023-05-07T10:08:53;14.65;;;9.27;;
76423;SDS011;65257;52.104;4.268;2023-05-07T10:11:21;12.70;;;8.60;;
76423;SDS011;65257;52.104;4.268;2023-05-07T10:13:47;18.33;;;9.23;;
76423;SDS011;65257;52.104;4.268;2023-05-07T10:16:13;11.65;;;8.60;;
76423;SDS011;65257;52.104;4.268;2023-05-07T10:18:42;13.13;;;8.45;;
76423;SDS011;65257;52.104;4.268;2023-05-07T10:21:18;13.50;;;9.00;;
76423;SDS011;65257;52.104;4.268;2023-05-07T10:23:45;13.05;;;9.93;;
76423;SDS011;65257;52.104;4.268;2023-05-07T10:26:15;12.57;;;8.95;;
76423;SDS011;65257;52.104;4.268;2023-05-07T10:28:43;17.05;;;9.77;;
76423;SDS011;65257;52.104;4.268;2023-05-07T10:34:07;13.77;;;9.35;;
76423;SDS011;65257;52.104;4.268;2023-05-07T10:36:36;11.90;;;7.75;;
76423;SDS011;65257;52.104;4.268;2023-05-07T10:39:04;13.15;;;8.77;;
76423;SDS011;65257;52.104;4.268;2023-05-07T10:41:38;14.25;;;8.98;;
76423;SDS011;65257;52.104;4.268;2023-05-07T10:44:06;14.77;;;8.65;;
76423;SDS011;65257;52.104;4.268;2023-05-07T10:46:32;14.88;;;8.63;;
76423;SDS011;65257;52.104;4.268;2023-05-07T10:51:30;12.48;;;8.80;;
76423;SDS011;65257;52.104;4.268;2023-05-07T10:56:41;14.75;;;10.40;;
76423;SDS011;65257;52.104;4.268;2023-05-07T11:01:59;20.00;;;11.48;;
76423;SDS011;65257;52.104;4.268;2023-05-07T11:04:31;25.02;;;12.70;;
76423;SDS011;65257;52.104;4.268;2023-05-07T11:15:05;44.67;;;17.67;;
76423;SDS011;65257;52.104;4.268;2023-05-07T11:17:34;42.72;;;15.80;;
76423;SDS011;65257;52.104;4.268;2023-05-07T11:20:17;36.42;;;16.40;;
76423;SDS011;65257;52.104;4.268;2023-05-07T11:22:42;34.63;;;16.15;;
76423;SDS011;65257;52.104;4.268;2023-05-07T11:25:08;33.38;;;16.00;;
76423;SDS011;65257;52.104;4.268;2023-05-07T11:27:37;36.15;;;16.50;;
76423;SDS011;65257;52.104;4.268;2023-05-07T11:30:06;32.72;;;15.88;;
76423;SDS011;65257;52.104;4.268;2023-05-07T11:32:36;33.53;;;16.08;;
76423;SDS011;65257;52.104;4.268;2023-05-07T11:35:07;29.67;;;14.75;;
76423;SDS011;65257;52.104;4.268;2023-05-07T11:37:34;32.47;;;15.38;;
76423;SDS011;65257;52.104;4.268;2023-05-07T11:40:06;18.48;;;14.40;;
76423;SDS011;65257;52.104;4.268;2023-05-07T11:42:35;24.85;;;14.30;;
76423;SDS011;65257;52.104;4.268;2023-05-07T11:45:06;20.38;;;14.77;;
76423;SDS011;65257;52.104;4.268;2023-05-07T11:47:33;21.25;;;15.63;;
76423;SDS011;65257;52.104;4.268;2023-05-07T11:50:03;18.00;;;14.50;;
76423;SDS011;65257;52.104;4.268;2023-05-07T11:52:36;21.25;;;13.68;;
76423;SDS011;65257;52.104;4.268;2023-05-07T11:55:07;18.42;;;14.32;;
76423;SDS011;65257;52.104;4.268;2023-05-07T11:57:38;20.52;;;13.98;;
76423;SDS011;65257;52.104;4.268;2023-05-07T12:00:17;21.02;;;14.35;;
76423;SDS011;65257;52.104;4.268;2023-05-07T12:02:44;20.15;;;13.90;;
76423;SDS011;65257;52.104;4.268;2023-05-07T12:05:11;19.02;;;14.15;;
76423;SDS011;65257;52.104;4.268;2023-05-07T12:07:37;21.52;;;14.75;;
76423;SDS011;65257;52.104;4.268;2023-05-07T12:10:05;16.98;;;13.43;;
76423;SDS011;65257;52.104;4.268;2023-05-07T12:12:37;21.92;;;14.82;;
76423;SDS011;65257;52.104;4.268;2023-05-07T12:15:05;19.27;;;13.98;;
76423;SDS011;65257;52.104;4.268;2023-05-07T12:17:32;20.17;;;14.57;;
76423;SDS011;65257;52.104;4.268;2023-05-07T12:19:58;21.13;;;15.77;;
76423;SDS011;65257;52.104;4.268;2023-05-07T12:22:28;21.42;;;15.73;;
76423;SDS011;65257;52.104;4.268;2023-05-07T12:25:03;24.85;;;15.07;;
76423;SDS011;65257;52.104;4.268;2023-05-07T12:27:30;23.23;;;15.93;;
76423;SDS011;65257;52.104;4.268;2023-05-07T12:30:09;22.00;;;17.00;;
76423;SDS011;65257;52.104;4.268;2023-05-07T12:32:45;24.02;;;16.55;;
76423;SDS011;65257;52.104;4.268;2023-05-07T12:35:10;21.73;;;16.80;;
76423;SDS011;65257;52.104;4.268;2023-05-07T12:37:36;22.05;;;16.55;;
76423;SDS011;65257;52.104;4.268;2023-05-07T12:40:11;22.58;;;17.35;;
76423;SDS011;65257;52.104;4.268;2023-05-07T12:42:42;22.67;;;16.75;;
76423;SDS011;65257;52.104;4.268;2023-05-07T12:45:12;23.83;;;17.08;;
76423;SDS011;65257;52.104;4.268;2023-05-07T12:47:44;25.75;;;18.60;;
76423;SDS011;65257;52.104;4.268;2023-05-07T12:50:19;31.52;;;19.60;;
76423;SDS011;65257;52.104;4.268;2023-05-07T12:52:47;24.13;;;17.85;;
76423;SDS011;65257;52.104;4.268;2023-05-07T12:55:16;28.20;;;20.08;;
76423;SDS011;65257;52.104;4.268;2023-05-07T12:57:42;25.52;;;18.83;;
76423;SDS011;65257;52.104;4.268;2023-05-07T13:00:32;24.33;;;18.98;;
76423;SDS011;65257;52.104;4.268;2023-05-07T13:02:58;28.48;;;18.98;;
76423;SDS011;65257;52.104;4.268;2023-05-07T13:05:24;26.30;;;18.70;;
76423;SDS011;65257;52.104;4.268;2023-05-07T13:07:59;27.42;;;19.65;;
76423;SDS011;65257;52.104;4.268;2023-05-07T13:10:24;28.48;;;19.20;;
76423;SDS011;65257;52.104;4.268;2023-05-07T13:12:50;29.70;;;20.60;;
76423;SDS011;65257;52.104;4.268;2023-05-07T13:15:19;30.85;;;19.17;;
76423;SDS011;65257;52.104;4.268;2023-05-07T13:17:45;28.77;;;20.20;;
76423;SDS011;65257;52.104;4.268;2023-05-07T13:20:14;25.55;;;19.45;;
76423;SDS011;65257;52.104;4.268;2023-05-07T13:22:40;30.98;;;20.75;;
76423;SDS011;65257;52.104;4.268;2023-05-07T13:25:09;29.60;;;20.23;;
76423;SDS011;65257;52.104;4.268;2023-05-07T13:27:35;29.13;;;21.10;;
76423;SDS011;65257;52.104;4.268;2023-05-07T13:30:02;28.88;;;19.77;;
76423;SDS011;65257;52.104;4.268;2023-05-07T13:32:28;33.05;;;21.25;;
76423;SDS011;65257;52.104;4.268;2023-05-07T13:34:58;28.08;;;19.92;;
76423;SDS011;65257;52.104;4.268;2023-05-07T13:37:24;26.85;;;19.60;;
76423;SDS011;65257;52.104;4.268;2023-05-07T13:39:50;25.92;;;18.65;;
76423;SDS011;65257;52.104;4.268;2023-05-07T13:42:15;25.33;;;19.02;;
76423;SDS011;65257;52.104;4.268;2023-05-07T13:44:41;26.33;;;19.92;;
76423;SDS011;65257;52.104;4.268;2023-05-07T13:47:08;26.13;;;18.90;;
76423;SDS011;65257;52.104;4.268;2023-05-07T13:49:34;23.80;;;19.33;;
76423;SDS011;65257;52.104;4.268;2023-05-07T13:51:59;29.05;;;18.70;;
76423;SDS011;65257;52.104;4.268;2023-05-07T13:54:25;24.50;;;19.55;;
76423;SDS011;65257;52.104;4.268;2023-05-07T13:56:51;25.20;;;18.98;;
76423;SDS011;65257;52.104;4.268;2023-05-07T13:59:19;25.33;;;18.77;;
76423;SDS011;65257;52.104;4.268;2023-05-07T14:01:44;28.50;;;21.30;;
76423;SDS011;65257;52.104;4.268;2023-05-07T14:04:10;27.00;;;20.88;;
76423;SDS011;65257;52.104;4.268;2023-05-07T14:06:36;27.27;;;20.45;;
76423;SDS011;65257;52.104;4.268;2023-05-07T14:09:02;31.83;;;21.05;;
76423;SDS011;65257;52.104;4.268;2023-05-07T14:11:30;33.22;;;21.38;;
76423;SDS011;65257;52.104;4.268;2023-05-07T14:13:56;30.23;;;21.15;;
76423;SDS011;65257;52.104;4.268;2023-05-07T14:16:23;29.05;;;21.38;;
76423;SDS011;65257;52.104;4.268;2023-05-07T14:18:48;32.03;;;22.23;;
76423;SDS011;65257;52.104;4.268;2023-05-07T14:21:14;29.85;;;21.58;;
76423;SDS011;65257;52.104;4.268;2023-05-07T14:23:40;26.50;;;19.58;;
76423;SDS011;65257;52.104;4.268;2023-05-07T14:26:14;28.52;;;20.17;;
76423;SDS011;65257;52.104;4.268;2023-05-07T14:28:40;29.10;;;19.92;;
76423;SDS011;65257;52.104;4.268;2023-05-07T14:31:14;29.17;;;20.85;;
76423;SDS011;65257;52.104;4.268;2023-05-07T14:33:39;29.17;;;21.45;;
76423;SDS011;65257;52.104;4.268;2023-05-07T14:36:05;31.33;;;21.63;;
76423;SDS011;65257;52.104;4.268;2023-05-07T14:38:40;29.88;;;20.95;;
76423;SDS011;65257;52.104;4.268;2023-05-07T14:41:06;31.77;;;21.35;;
76423;SDS011;65257;52.104;4.268;2023-05-07T14:43:31;28.55;;;20.88;;
76423;SDS011;65257;52.104;4.268;2023-05-07T14:45:57;27.45;;;20.48;;
76423;SDS011;65257;52.104;4.268;2023-05-07T14:48:22;27.00;;;21.08;;
76423;SDS011;65257;52.104;4.268;2023-05-07T14:50:48;31.40;;;22.40;;
76423;SDS011;65257;52.104;4.268;2023-05-07T14:53:18;30.98;;;21.73;;
76423;SDS011;65257;52.104;4.268;2023-05-07T14:55:43;31.85;;;22.10;;